sensor_id;sensor_type;location;lat;lon;timestamp;temperature;humidity
54409;DHT22;40315;48.620;9.828;2022-08-03T00:01:03;18.50;99.90
54409;DHT22;40315;48.620;9.828;2022-08-03T00:03:31;18.40;99.90
54409;DHT22;40315;48.620;9.828;2022-08-03T00:05:58;18.30;99.90
54409;DHT22;40315;48.620;9.828;2022-08-03T00:08:26;18.30;99.90
54409;DHT22;40315;48.620;9.828;2022-08-03T00:10:54;18.20;99.90
54409;DHT22;40315;48.620;9.828;2022-08-03T00:13:21;18.30;99.90
54409;DHT22;40315;48.620;9.828;2022-08-03T00:15:48;18.30;99.90
54409;DHT22;40315;48.620;9.828;2022-08-03T00:18:15;18.30;99.90
54409;DHT22;40315;48.620;9.828;2022-08-03T00:20:42;18.20;99.90
54409;DHT22;40315;48.620;9.828;2022-08-03T00:23:09;18.20;99.90
54409;DHT22;40315;48.620;9.828;2022-08-03T00:25:38;18.10;99.90
54409;DHT22;40315;48.620;9.828;2022-08-03T00:28:05;18.10;99.90
54409;DHT22;40315;48.620;9.828;2022-08-03T00:30:33;18.20;99.90
54409;DHT22;40315;48.620;9.828;2022-08-03T00:33:00;18.20;99.90
54409;DHT22;40315;48.620;9.828;2022-08-03T00:35:28;18.20;99.90
54409;DHT22;40315;48.620;9.828;2022-08-03T00:37:55;18.10;99.90
54409;DHT22;40315;48.620;9.828;2022-08-03T00:40:22;18.10;99.90
54409;DHT22;40315;48.620;9.828;2022-08-03T00:42:52;18.20;99.90
54409;DHT22;40315;48.620;9.828;2022-08-03T00:45:21;18.10;99.90
54409;DHT22;40315;48.620;9.828;2022-08-03T00:47:48;17.90;99.90
54409;DHT22;40315;48.620;9.828;2022-08-03T00:50:16;17.80;99.90
54409;DHT22;40315;48.620;9.828;2022-08-03T00:52:46;17.90;99.90
54409;DHT22;40315;48.620;9.828;2022-08-03T00:55:14;17.80;99.90
54409;DHT22;40315;48.620;9.828;2022-08-03T00:57:43;17.90;99.90
54409;DHT22;40315;48.620;9.828;2022-08-03T01:00:16;17.90;99.90
54409;DHT22;40315;48.620;9.828;2022-08-03T01:02:43;17.80;99.90
54409;DHT22;40315;48.620;9.828;2022-08-03T01:05:10;17.80;99.90
54409;DHT22;40315;48.620;9.828;2022-08-03T01:07:47;17.80;99.90
54409;DHT22;40315;48.620;9.828;2022-08-03T01:10:25;17.80;99.90
54409;DHT22;40315;48.620;9.828;2022-08-03T01:13:03;17.70;99.90
54409;DHT22;40315;48.620;9.828;2022-08-03T01:15:39;17.60;99.90
54409;DHT22;40315;48.620;9.828;2022-08-03T01:18:19;17.60;99.90
54409;DHT22;40315;48.620;9.828;2022-08-03T01:20:52;17.70;99.90
54409;DHT22;40315;48.620;9.828;2022-08-03T01:23:48;17.70;99.90
54409;DHT22;40315;48.620;9.828;2022-08-03T01:26:33;17.70;99.90
54409;DHT22;40315;48.620;9.828;2022-08-03T01:29:19;17.50;99.90
54409;DHT22;40315;48.620;9.828;2022-08-03T01:31:57;17.50;99.90
54409;DHT22;40315;48.620;9.828;2022-08-03T01:34:31;17.50;99.90
54409;DHT22;40315;48.620;9.828;2022-08-03T01:37:02;17.50;99.90
54409;DHT22;40315;48.620;9.828;2022-08-03T20:46:29;23.60;91.90
54409;DHT22;40315;48.620;9.828;2022-08-03T20:48:58;23.40;92.30
54409;DHT22;40315;48.620;9.828;2022-08-03T20:51:28;23.30;92.70
54409;DHT22;40315;48.620;9.828;2022-08-03T20:53:55;23.10;93.10
54409;DHT22;40315;48.620;9.828;2022-08-03T20:56:29;22.80;93.60
54409;DHT22;40315;48.620;9.828;2022-08-03T20:58:57;22.80;93.80
54409;DHT22;40315;48.620;9.828;2022-08-03T21:01:25;22.70;94.20
54409;DHT22;40315;48.620;9.828;2022-08-03T21:03:54;22.60;94.60
54409;DHT22;40315;48.620;9.828;2022-08-03T21:06:24;22.60;94.80
54409;DHT22;40315;48.620;9.828;2022-08-03T21:09:00;22.50;95.10
54409;DHT22;40315;48.620;9.828;2022-08-03T21:11:36;22.60;95.20
54409;DHT22;40315;48.620;9.828;2022-08-03T21:14:10;22.50;95.50
54409;DHT22;40315;48.620;9.828;2022-08-03T21:16:42;22.50;96.10
54409;DHT22;40315;48.620;9.828;2022-08-03T21:19:11;22.50;96.10
54409;DHT22;40315;48.620;9.828;2022-08-03T21:21:40;22.40;96.30
54409;DHT22;40315;48.620;9.828;2022-08-03T21:24:10;22.50;96.60
54409;DHT22;40315;48.620;9.828;2022-08-03T21:26:39;22.40;96.90
54409;DHT22;40315;48.620;9.828;2022-08-03T21:29:07;22.30;96.90
54409;DHT22;40315;48.620;9.828;2022-08-03T21:31:38;22.30;97.50
54409;DHT22;40315;48.620;9.828;2022-08-03T21:34:06;22.20;97.70
54409;DHT22;40315;48.620;9.828;2022-08-03T21:36:35;22.20;97.90
54409;DHT22;40315;48.620;9.828;2022-08-03T21:39:06;22.10;98.10
54409;DHT22;40315;48.620;9.828;2022-08-03T21:41:34;22.10;98.40
54409;DHT22;40315;48.620;9.828;2022-08-03T21:44:03;22.00;98.50
54409;DHT22;40315;48.620;9.828;2022-08-03T21:46:34;21.90;98.90
54409;DHT22;40315;48.620;9.828;2022-08-03T21:49:05;21.80;99.30
54409;DHT22;40315;48.620;9.828;2022-08-03T21:51:36;21.70;99.60
54409;DHT22;40315;48.620;9.828;2022-08-03T21:54:05;21.00;99.50
54409;DHT22;40315;48.620;9.828;2022-08-03T21:56:36;21.70;99.90
54409;DHT22;40315;48.620;9.828;2022-08-03T21:59:13;21.50;99.90
54409;DHT22;40315;48.620;9.828;2022-08-03T22:01:41;21.50;99.90
54409;DHT22;40315;48.620;9.828;2022-08-03T22:04:12;21.40;99.90
54409;DHT22;40315;48.620;9.828;2022-08-03T22:06:45;21.40;99.90
54409;DHT22;40315;48.620;9.828;2022-08-03T22:09:12;21.30;99.90
54409;DHT22;40315;48.620;9.828;2022-08-03T22:11:40;21.30;99.90
54409;DHT22;40315;48.620;9.828;2022-08-03T22:14:07;21.20;99.90
54409;DHT22;40315;48.620;9.828;2022-08-03T22:16:38;21.30;99.90
54409;DHT22;40315;48.620;9.828;2022-08-03T22:19:07;21.30;99.90
54409;DHT22;40315;48.620;9.828;2022-08-03T22:21:35;21.40;99.90
54409;DHT22;40315;48.620;9.828;2022-08-03T22:24:05;21.30;99.90
54409;DHT22;40315;48.620;9.828;2022-08-03T22:26:34;21.30;99.90
54409;DHT22;40315;48.620;9.828;2022-08-03T22:29:06;21.20;99.90
54409;DHT22;40315;48.620;9.828;2022-08-03T22:31:34;21.10;99.90
54409;DHT22;40315;48.620;9.828;2022-08-03T22:34:03;21.00;99.90
54409;DHT22;40315;48.620;9.828;2022-08-03T22:36:33;21.10;99.90
54409;DHT22;40315;48.620;9.828;2022-08-03T22:39:00;21.10;99.90
54409;DHT22;40315;48.620;9.828;2022-08-03T22:41:29;21.00;99.90
54409;DHT22;40315;48.620;9.828;2022-08-03T22:43:59;19.90;99.90
54409;DHT22;40315;48.620;9.828;2022-08-03T22:46:26;20.80;99.90
54409;DHT22;40315;48.620;9.828;2022-08-03T22:48:54;20.70;99.90
54409;DHT22;40315;48.620;9.828;2022-08-03T22:51:22;20.60;99.90
54409;DHT22;40315;48.620;9.828;2022-08-03T22:53:49;20.50;99.90
54409;DHT22;40315;48.620;9.828;2022-08-03T22:56:16;20.60;99.90
54409;DHT22;40315;48.620;9.828;2022-08-03T22:58:47;20.60;99.90
54409;DHT22;40315;48.620;9.828;2022-08-03T23:01:17;20.60;99.90
54409;DHT22;40315;48.620;9.828;2022-08-03T23:03:50;20.70;99.90
54409;DHT22;40315;48.620;9.828;2022-08-03T23:06:18;20.60;99.90
54409;DHT22;40315;48.620;9.828;2022-08-03T23:08:47;20.50;99.90
54409;DHT22;40315;48.620;9.828;2022-08-03T23:11:17;20.50;99.90
54409;DHT22;40315;48.620;9.828;2022-08-03T23:13:48;20.50;99.90
54409;DHT22;40315;48.620;9.828;2022-08-03T23:16:18;20.40;99.90
54409;DHT22;40315;48.620;9.828;2022-08-03T23:18:47;20.50;99.90
54409;DHT22;40315;48.620;9.828;2022-08-03T23:21:17;20.30;99.90
54409;DHT22;40315;48.620;9.828;2022-08-03T23:23:44;20.20;99.90
54409;DHT22;40315;48.620;9.828;2022-08-03T23:26:12;20.20;99.90
54409;DHT22;40315;48.620;9.828;2022-08-03T23:28:44;20.10;99.90
54409;DHT22;40315;48.620;9.828;2022-08-03T23:31:14;20.10;99.90
54409;DHT22;40315;48.620;9.828;2022-08-03T23:33:43;20.00;99.90
54409;DHT22;40315;48.620;9.828;2022-08-03T23:36:16;19.90;99.90
54409;DHT22;40315;48.620;9.828;2022-08-03T23:38:43;19.80;99.90
54409;DHT22;40315;48.620;9.828;2022-08-03T23:41:13;19.80;99.90
54409;DHT22;40315;48.620;9.828;2022-08-03T23:43:41;19.70;99.90
54409;DHT22;40315;48.620;9.828;2022-08-03T23:46:10;19.70;99.90
54409;DHT22;40315;48.620;9.828;2022-08-03T23:48:42;19.80;99.90
54409;DHT22;40315;48.620;9.828;2022-08-03T23:51:14;19.80;99.90
54409;DHT22;40315;48.620;9.828;2022-08-03T23:53:50;19.70;99.90
54409;DHT22;40315;48.620;9.828;2022-08-03T23:56:29;19.70;99.90
54409;DHT22;40315;48.620;9.828;2022-08-03T23:59:05;19.60;99.90
